OLBA/BEY METAR and TAF weather

Enter ICAO airport designator
Station Type Date Time Source
OLBA METAR 2019/02/21 00:00 UTC NOAA

OLBA 210000Z 13005KT 060V140 CAVOK 13/07 Q1022 NOSIG


Station Type Date Time Source
OLBA Decoded METAR 2019/02/21 00:00 UTC NOAA

Beyrouth Aeroport , Lebanon (OLBA) 33-49N 035-29E 19M
Feb 20, 2019 - 07:00 PM EST / 2019.02.21 0000 UTC
Wind: from the SE (130 degrees) at 6 MPH (5 KT) (direction variable):0
Visibility: greater than 7 mile(s):0
Temperature: 55 F (13 C)
Dew Point: 44 F (7 C)
Relative Humidity: 66%
Pressure (altimeter): 30.18 in. Hg (1022 hPa)
ob: OLBA 210000Z 13005KT 060V140 CAVOK 13/07 Q1022 NOSIG
cycle: 0

Station Type Date Time Source
OLBA TAF 2019/02/20 18:06 UTC NOAA

TAF TAF OLBA 201600Z 2018/2124 20006KT 8000 SCT026 SCT080
BECMG 2100/2103 VRB02KT
TEMPO 2100/2106 DZ
BECMG 2106/2109 23008KT BKN026
TEMPO 2109/2124 -RA


Example: see airport list